createdAt,value
2018-12-23T00:01:05.090Z,7.25
2018-12-23T00:03:33.424Z,7.30
2018-12-23T00:06:01.679Z,7.34
2018-12-23T00:08:29.945Z,7.32
2018-12-23T00:10:58.623Z,7.34
2018-12-23T00:13:26.866Z,7.36
2018-12-23T00:15:55.269Z,7.34
2018-12-23T00:18:23.513Z,7.27
2018-12-23T00:20:51.777Z,7.35
2018-12-23T00:23:20.348Z,7.24
2018-12-23T00:25:48.743Z,7.28
2018-12-23T00:28:16.977Z,7.30
2018-12-23T00:30:45.212Z,7.32
2018-12-23T00:33:13.451Z,7.48
2018-12-23T00:35:41.804Z,7.47
2018-12-23T00:38:10.128Z,7.42
2018-12-23T00:40:38.376Z,7.41
2018-12-23T00:43:06.618Z,7.58
2018-12-23T00:45:34.891Z,7.58
2018-12-23T00:48:03.169Z,7.45
2018-12-23T00:50:31.621Z,7.50
2018-12-23T00:52:59.855Z,7.46
2018-12-23T00:55:28.126Z,7.53
2018-12-23T00:57:56.480Z,7.57
2018-12-23T01:00:24.752Z,7.52
2018-12-23T01:02:53.088Z,7.48
2018-12-23T01:05:28.596Z,7.48
2018-12-23T01:07:52.707Z,7.52
2018-12-23T01:10:22.354Z,7.46
2018-12-23T01:12:50.607Z,7.55
2018-12-23T01:15:18.863Z,7.51
2018-12-23T01:17:47.117Z,7.56
2018-12-23T01:20:15.330Z,7.56
2018-12-23T01:22:43.572Z,7.48
2018-12-23T01:25:12.007Z,7.53
2018-12-23T01:27:40.236Z,7.50
2018-12-23T01:30:08.488Z,7.56
2018-12-23T01:32:36.702Z,7.57
2018-12-23T01:35:05.102Z,7.56
2018-12-23T01:37:33.330Z,7.61
2018-12-23T01:40:01.577Z,7.65
2018-12-23T01:42:29.993Z,7.60
2018-12-23T01:44:58.335Z,7.65
2018-12-23T01:47:26.558Z,7.63
2018-12-23T01:49:54.796Z,7.53
2018-12-23T01:52:23.049Z,7.52
2018-12-23T01:54:51.247Z,7.64
2018-12-23T01:57:19.502Z,7.67
2018-12-23T01:59:47.714Z,7.67
2018-12-23T02:02:15.930Z,7.66
2018-12-23T02:04:44.176Z,7.62
2018-12-23T02:07:12.519Z,7.72
2018-12-23T02:09:40.859Z,7.65
2018-12-23T02:12:09.164Z,7.64
2018-12-23T02:14:37.386Z,7.58
2018-12-23T02:17:05.706Z,7.61
2018-12-23T02:19:33.928Z,7.64
2018-12-23T02:22:02.267Z,7.66
2018-12-23T02:24:30.503Z,7.70
2018-12-23T02:26:58.823Z,7.79
2018-12-23T02:29:27.049Z,7.73
2018-12-23T02:31:55.453Z,7.78
2018-12-23T02:34:23.720Z,7.75
2018-12-23T02:36:51.952Z,7.68
2018-12-23T02:39:20.397Z,7.70
2018-12-23T02:41:48.643Z,7.75
2018-12-23T02:44:16.902Z,7.75
2018-12-23T02:46:45.155Z,7.70
2018-12-23T02:49:13.395Z,7.73
2018-12-23T02:51:41.642Z,7.77
2018-12-23T02:54:09.854Z,7.71
2018-12-23T02:56:38.114Z,7.74
2018-12-23T02:59:06.355Z,7.74
2018-12-23T03:01:34.651Z,7.75
2018-12-23T03:04:02.904Z,7.72
2018-12-23T03:06:31.155Z,7.67
2018-12-23T03:08:59.390Z,7.68
2018-12-23T03:11:27.664Z,7.66
2018-12-23T03:13:55.871Z,7.72
2018-12-23T03:16:24.100Z,7.74
2018-12-23T03:18:52.337Z,7.75
2018-12-23T03:21:20.557Z,7.69
2018-12-23T03:23:48.855Z,7.78
2018-12-23T03:26:17.093Z,7.80
2018-12-23T03:28:45.293Z,7.77
2018-12-23T03:31:13.546Z,7.78
2018-12-23T03:33:41.775Z,7.80
2018-12-23T03:36:14.909Z,7.77
2018-12-23T03:38:40.302Z,7.83
2018-12-23T03:41:08.547Z,7.86
2018-12-23T03:43:36.818Z,7.85
2018-12-23T03:46:05.099Z,7.83
2018-12-23T03:48:33.334Z,7.77
2018-12-23T03:51:01.663Z,7.81
2018-12-23T03:53:29.993Z,7.74
2018-12-23T03:55:58.241Z,7.83
2018-12-23T03:58:26.499Z,7.80
2018-12-23T04:00:55.055Z,7.76
2018-12-23T04:03:23.324Z,7.77
2018-12-23T04:05:51.608Z,7.81
2018-12-23T04:08:19.866Z,7.80
2018-12-23T04:10:48.128Z,7.78
2018-12-23T04:13:16.416Z,7.80
2018-12-23T04:15:45.784Z,7.83
2018-12-23T04:18:14.032Z,7.89
2018-12-23T04:20:42.328Z,7.87
2018-12-23T04:23:10.604Z,7.80
2018-12-23T04:25:38.805Z,7.83
2018-12-23T04:28:07.012Z,7.89
2018-12-23T04:30:35.260Z,7.92
2018-12-23T04:33:03.474Z,7.88
2018-12-23T04:35:31.732Z,7.92
2018-12-23T04:37:59.956Z,7.85
2018-12-23T04:40:28.185Z,7.81
2018-12-23T04:43:03.069Z,7.84
2018-12-23T04:45:31.365Z,7.82
2018-12-23T04:47:59.631Z,7.92
2018-12-23T04:50:27.846Z,7.89
2018-12-23T04:52:56.087Z,7.87
2018-12-23T04:55:25.364Z,7.86
2018-12-23T04:57:53.867Z,7.85
2018-12-23T05:00:22.121Z,7.91
2018-12-23T05:02:50.374Z,7.93
2018-12-23T05:05:18.594Z,7.87
2018-12-23T05:07:46.895Z,7.88
2018-12-23T05:10:15.168Z,7.95
2018-12-23T05:12:43.419Z,7.92
2018-12-23T05:15:11.711Z,7.91
2018-12-23T05:17:40.031Z,7.88
2018-12-23T05:20:08.273Z,7.92
2018-12-23T05:22:36.560Z,7.88
2018-12-23T05:25:04.991Z,7.97
2018-12-23T05:27:33.239Z,7.89
2018-12-23T05:30:01.437Z,7.92
2018-12-23T05:32:29.661Z,7.88
2018-12-23T05:34:57.932Z,7.92
2018-12-23T05:37:26.174Z,7.99
2018-12-23T05:39:54.401Z,7.98
2018-12-23T05:42:22.710Z,7.95
2018-12-23T05:44:51.019Z,7.99
2018-12-23T05:47:19.268Z,7.98
2018-12-23T05:49:47.495Z,7.95
2018-12-23T05:52:15.698Z,7.98
2018-12-23T05:54:44.002Z,7.92
2018-12-23T05:57:12.311Z,7.88
2018-12-23T05:59:40.551Z,7.89
2018-12-23T06:02:08.785Z,7.97
2018-12-23T06:04:36.997Z,7.93
2018-12-23T06:07:05.271Z,7.93
2018-12-23T06:09:33.516Z,8.01
2018-12-23T06:12:01.732Z,7.98
2018-12-23T06:14:29.952Z,7.94
2018-12-23T06:16:58.197Z,7.90
2018-12-23T06:19:26.428Z,8.02
2018-12-23T06:21:54.700Z,8.00
2018-12-23T06:24:22.963Z,7.97
2018-12-23T06:26:51.218Z,7.92
2018-12-23T06:29:19.469Z,7.96
2018-12-23T06:31:47.745Z,8.00
2018-12-23T06:34:15.995Z,7.97
2018-12-23T06:36:44.227Z,7.97
2018-12-23T06:39:12.496Z,8.02
2018-12-23T06:41:40.731Z,7.90
2018-12-23T06:44:08.963Z,7.86
2018-12-23T06:46:40.106Z,7.97
2018-12-23T06:49:08.329Z,7.98
2018-12-23T06:51:37.145Z,7.94
2018-12-23T06:54:05.370Z,7.91
2018-12-23T06:56:34.143Z,8.00
2018-12-23T06:59:02.398Z,7.98
2018-12-23T07:01:30.633Z,7.91
2018-12-23T07:03:58.903Z,7.93
2018-12-23T07:06:27.147Z,7.96
2018-12-23T07:08:55.405Z,7.94
2018-12-23T07:11:23.703Z,7.91
2018-12-23T07:15:31.678Z,7.94
2018-12-23T07:17:59.950Z,7.87
2018-12-23T07:20:28.292Z,7.88
2018-12-23T07:22:56.535Z,7.86
2018-12-23T07:25:24.856Z,7.92
2018-12-23T07:27:53.105Z,7.94
2018-12-23T07:30:21.384Z,7.86
2018-12-23T07:32:49.653Z,7.93
2018-12-23T07:35:17.955Z,7.93
2018-12-23T07:37:46.172Z,7.96
2018-12-23T07:40:14.595Z,7.96
2018-12-23T07:42:42.876Z,7.85
2018-12-23T07:45:11.127Z,7.88
2018-12-23T07:47:39.374Z,7.89
2018-12-23T07:50:07.613Z,7.97
2018-12-23T07:52:35.964Z,7.98
2018-12-23T07:55:04.291Z,8.02
2018-12-23T07:57:32.534Z,7.95
2018-12-23T08:00:00.779Z,7.97
2018-12-23T08:02:28.984Z,8.05
2018-12-23T08:04:57.225Z,8.01
2018-12-23T08:07:25.484Z,8.00
2018-12-23T08:09:53.711Z,8.00
2018-12-23T08:12:21.959Z,8.01
2018-12-23T08:14:50.221Z,8.02
2018-12-23T08:17:18.487Z,8.02
2018-12-23T08:19:46.887Z,7.96
2018-12-23T08:22:15.122Z,8.01
2018-12-23T08:24:43.366Z,8.00
2018-12-23T08:27:11.677Z,8.02
2018-12-23T08:29:39.884Z,8.01
2018-12-23T08:32:08.141Z,8.12
2018-12-23T08:34:36.383Z,8.01
2018-12-23T08:37:04.762Z,8.07
2018-12-23T08:39:32.998Z,8.12
2018-12-23T08:42:01.241Z,8.11
2018-12-23T08:44:32.452Z,8.14
2018-12-23T08:47:00.703Z,8.11
2018-12-23T08:49:28.944Z,8.09
2018-12-23T08:51:57.250Z,8.13
2018-12-23T08:54:25.517Z,8.10
2018-12-23T08:56:53.796Z,8.04
2018-12-23T08:59:21.991Z,8.07
2018-12-23T09:01:50.298Z,8.06
2018-12-23T09:04:18.551Z,8.10
2018-12-23T09:06:46.806Z,8.18
2018-12-23T09:09:15.065Z,8.11
2018-12-23T09:11:43.323Z,8.14
2018-12-23T09:14:11.600Z,8.26
2018-12-23T09:16:40.100Z,8.21
2018-12-23T09:19:08.322Z,8.24
2018-12-23T09:21:36.611Z,8.16
2018-12-23T09:24:04.991Z,8.12
2018-12-23T09:29:26.011Z,8.14
2018-12-23T09:31:54.548Z,8.16
2018-12-23T09:34:22.788Z,8.19
2018-12-23T09:37:09.816Z,8.13
2018-12-23T09:39:38.199Z,8.19
2018-12-23T09:42:06.482Z,8.14
2018-12-23T09:44:34.773Z,8.15
2018-12-23T09:47:03.005Z,8.13
2018-12-23T09:49:31.249Z,8.11
2018-12-23T09:51:59.674Z,8.13
2018-12-23T09:54:40.643Z,8.15
2018-12-23T09:57:08.897Z,8.25
2018-12-23T10:02:30.454Z,8.14
2018-12-23T10:04:58.675Z,8.19
2018-12-23T10:07:26.951Z,8.22
2018-12-23T10:09:55.163Z,8.26
2018-12-23T10:12:23.495Z,8.13
2018-12-23T10:14:51.834Z,8.08
2018-12-23T10:17:20.031Z,8.19
2018-12-23T10:19:49.288Z,8.16
2018-12-23T10:22:17.524Z,8.15
2018-12-23T10:24:45.773Z,8.21
2018-12-23T10:27:14.016Z,8.16
2018-12-23T10:29:42.590Z,8.23
2018-12-23T10:32:10.854Z,8.26
2018-12-23T10:34:39.125Z,8.28
2018-12-23T10:40:00.925Z,8.22
2018-12-23T10:42:29.210Z,8.28
2018-12-23T10:44:57.577Z,8.26
2018-12-23T10:50:18.692Z,8.15
2018-12-23T10:52:46.919Z,8.22
2018-12-23T10:55:15.154Z,8.31
2018-12-23T10:57:43.420Z,8.25
2018-12-23T11:00:13.893Z,8.27
2018-12-23T11:02:42.469Z,8.32
2018-12-23T11:05:10.867Z,8.24
2018-12-23T11:07:39.127Z,8.30
2018-12-23T11:10:07.491Z,8.25
2018-12-23T11:12:36.073Z,8.28
2018-12-23T11:15:06.164Z,8.25
2018-12-23T11:17:35.718Z,8.31
2018-12-23T11:20:05.482Z,8.32
2018-12-23T11:22:33.747Z,8.29
2018-12-23T11:25:01.998Z,8.29
2018-12-23T11:27:30.261Z,8.29
2018-12-23T11:29:58.533Z,8.32
2018-12-23T11:32:28.230Z,8.32
2018-12-23T11:34:56.509Z,8.27
2018-12-23T11:37:24.845Z,8.29
2018-12-23T11:39:53.141Z,8.28
2018-12-23T11:42:21.381Z,8.32
2018-12-23T11:44:49.625Z,8.34
2018-12-23T11:47:17.880Z,8.26
2018-12-23T11:49:46.233Z,8.23
2018-12-23T11:52:14.582Z,8.27
2018-12-23T11:54:42.907Z,8.32
2018-12-23T11:57:11.139Z,8.35
2018-12-23T11:59:39.523Z,8.30
2018-12-23T12:02:15.071Z,8.35
2018-12-23T12:04:38.216Z,8.38
2018-12-23T12:07:06.475Z,8.40
2018-12-23T12:09:34.775Z,8.40
2018-12-23T12:12:03.334Z,8.43
2018-12-23T12:14:31.594Z,8.37
2018-12-23T12:16:59.827Z,8.37
2018-12-23T12:19:28.162Z,8.38
2018-12-23T12:21:56.479Z,8.35
2018-12-23T12:24:24.819Z,8.34
2018-12-23T12:26:53.085Z,8.43
2018-12-23T12:29:21.368Z,8.36
2018-12-23T12:31:49.652Z,8.31
2018-12-23T12:34:18.032Z,8.30
2018-12-23T12:36:46.298Z,8.37
2018-12-23T12:39:14.542Z,8.40
2018-12-23T12:41:42.767Z,8.39
2018-12-23T12:44:11.021Z,8.36
2018-12-23T12:46:39.293Z,8.35
2018-12-23T12:49:07.524Z,8.35
2018-12-23T12:51:35.767Z,8.34
2018-12-23T12:54:04.985Z,8.28
2018-12-23T12:56:33.219Z,8.33
2018-12-23T12:59:01.461Z,8.29
2018-12-23T13:01:29.719Z,8.34
2018-12-23T13:03:58.987Z,8.30
2018-12-23T13:06:27.641Z,8.32
2018-12-23T13:09:00.457Z,8.34
2018-12-23T13:11:26.263Z,8.38
2018-12-23T13:13:54.494Z,8.35
2018-12-23T13:16:22.758Z,8.25
2018-12-23T13:18:51.020Z,8.29
2018-12-23T13:21:19.326Z,8.22
2018-12-23T13:23:47.559Z,8.23
2018-12-23T13:26:22.300Z,8.25
2018-12-23T13:28:50.552Z,8.20
2018-12-23T13:31:18.789Z,8.16
2018-12-23T13:33:47.057Z,8.15
2018-12-23T13:36:15.482Z,8.13
2018-12-23T13:38:43.758Z,8.16
2018-12-23T13:41:19.709Z,8.17
2018-12-23T13:44:02.239Z,8.14
2018-12-23T13:46:41.966Z,8.10
2018-12-23T13:49:23.293Z,8.14
2018-12-23T13:52:09.413Z,8.18
2018-12-23T13:55:21.671Z,8.14
2018-12-23T13:57:58.886Z,8.13
2018-12-23T14:00:52.818Z,8.10
2018-12-23T14:04:03.413Z,8.17
2018-12-23T14:06:43.724Z,8.10
2018-12-23T14:09:24.814Z,8.15
2018-12-23T14:11:57.085Z,8.05
2018-12-23T14:14:25.389Z,8.01
2018-12-23T14:16:53.722Z,8.06
2018-12-23T14:19:22.145Z,8.05
2018-12-23T14:21:50.514Z,8.09
2018-12-23T14:24:18.767Z,8.02
2018-12-23T14:26:47.035Z,8.00
2018-12-23T14:29:15.338Z,8.10
2018-12-23T14:31:43.590Z,8.04
2018-12-23T14:34:13.834Z,8.03
2018-12-23T14:36:42.331Z,8.03
2018-12-23T14:39:10.927Z,8.03
2018-12-23T14:41:39.262Z,8.10
2018-12-23T14:44:07.499Z,8.11
2018-12-23T14:46:35.711Z,8.14
2018-12-23T14:49:04.147Z,8.12
2018-12-23T14:51:32.528Z,8.11
2018-12-23T14:54:00.843Z,8.10
2018-12-23T14:56:29.123Z,8.10
2018-12-23T14:58:57.353Z,8.09
2018-12-23T15:01:25.591Z,8.11
2018-12-23T15:03:53.877Z,8.13
2018-12-23T15:06:22.148Z,8.06
2018-12-23T15:08:50.379Z,8.08
2018-12-23T15:11:18.663Z,8.08
2018-12-23T15:13:47.120Z,8.11
2018-12-23T15:16:15.638Z,8.13
2018-12-23T15:21:36.930Z,8.10
2018-12-23T15:24:06.040Z,8.12
2018-12-23T15:26:34.510Z,8.10
2018-12-23T15:29:04.030Z,8.16
2018-12-23T15:31:33.315Z,8.11
2018-12-23T15:34:02.684Z,8.15
2018-12-23T15:36:30.970Z,8.12
2018-12-23T15:38:59.261Z,8.13
2018-12-23T15:41:27.491Z,8.16
2018-12-23T15:46:48.356Z,8.17
2018-12-23T15:52:09.484Z,8.19
2018-12-23T15:54:46.370Z,8.17
2018-12-23T15:57:14.988Z,8.08
2018-12-23T15:59:43.358Z,8.08
2018-12-23T16:02:11.654Z,8.08
2018-12-23T16:04:40.028Z,8.08
2018-12-23T16:07:08.315Z,8.10
2018-12-23T16:09:36.688Z,8.10
2018-12-23T16:12:06.888Z,8.12
2018-12-23T16:14:35.210Z,8.09
2018-12-23T16:17:03.471Z,8.05
2018-12-23T16:19:31.725Z,8.03
2018-12-23T16:21:59.968Z,8.04
2018-12-23T16:24:28.304Z,8.10
2018-12-23T16:27:50.446Z,8.08
2018-12-23T16:30:18.778Z,8.08
2018-12-23T16:32:47.002Z,8.06
2018-12-23T16:35:15.329Z,8.06
2018-12-23T16:37:43.556Z,8.16
2018-12-23T16:40:13.104Z,8.11
2018-12-23T16:42:41.324Z,8.14
2018-12-23T16:45:23.859Z,8.13
2018-12-23T16:47:52.203Z,8.19
2018-12-23T16:50:26.846Z,8.13
2018-12-23T16:52:55.086Z,8.14
2018-12-23T16:55:23.403Z,8.12
2018-12-23T16:57:51.640Z,8.12
2018-12-23T17:00:19.909Z,8.10
2018-12-23T17:02:48.222Z,8.10
2018-12-23T17:05:16.484Z,8.09
2018-12-23T17:07:44.747Z,8.10
2018-12-23T17:10:13.118Z,8.04
2018-12-23T17:12:41.423Z,8.01
2018-12-23T17:15:09.807Z,8.04
2018-12-23T17:17:38.085Z,8.10
2018-12-23T17:20:08.893Z,8.09
2018-12-23T17:22:37.147Z,8.15
2018-12-23T17:25:05.593Z,8.09
2018-12-23T17:27:33.862Z,8.09
2018-12-23T17:30:02.154Z,8.10
2018-12-23T17:32:30.484Z,8.09
2018-12-23T17:34:58.755Z,8.07
2018-12-23T17:37:27.036Z,8.04
2018-12-23T17:39:55.292Z,8.02
2018-12-23T17:42:23.556Z,7.99
2018-12-23T17:44:51.865Z,7.98
2018-12-23T17:47:20.107Z,7.92
2018-12-23T17:49:48.380Z,7.98
2018-12-23T17:52:23.116Z,7.96
2018-12-23T17:54:46.914Z,7.94
2018-12-23T17:57:15.329Z,7.96
2018-12-23T17:59:43.592Z,7.95
2018-12-23T18:02:12.023Z,7.93
2018-12-23T18:04:40.258Z,7.96
2018-12-23T18:07:08.550Z,7.98
2018-12-23T18:09:36.804Z,7.92
2018-12-23T18:12:05.169Z,7.89
2018-12-23T18:14:33.577Z,7.78
2018-12-23T18:17:01.960Z,7.73
2018-12-23T18:19:30.202Z,7.69
2018-12-23T18:21:58.532Z,7.57
2018-12-23T18:24:26.788Z,7.50
2018-12-23T18:26:55.113Z,7.50
2018-12-23T18:29:23.349Z,7.52
2018-12-23T18:31:51.606Z,7.53
2018-12-23T18:34:19.870Z,7.56
2018-12-23T18:36:48.228Z,7.62
2018-12-23T18:39:16.664Z,7.50
2018-12-23T18:41:44.918Z,7.46
2018-12-23T18:44:13.184Z,7.47
2018-12-23T18:46:41.467Z,7.44
2018-12-23T18:49:09.694Z,7.41
2018-12-23T18:51:37.916Z,7.44
2018-12-23T18:54:06.178Z,7.47
2018-12-23T18:56:39.885Z,7.41
2018-12-23T18:59:08.140Z,7.47
2018-12-23T19:01:39.105Z,7.40
2018-12-23T19:04:07.332Z,7.40
2018-12-23T19:06:35.579Z,7.40
2018-12-23T19:09:13.293Z,7.37
2018-12-23T19:12:56.451Z,7.38
2018-12-23T19:15:42.632Z,7.36
2018-12-23T19:18:20.943Z,7.37
2018-12-23T19:21:21.061Z,7.36
2018-12-23T19:26:04.892Z,7.33
2018-12-23T19:32:46.742Z,7.35
2018-12-23T19:35:53.974Z,7.33
2018-12-23T19:38:45.792Z,7.30
2018-12-23T19:47:50.524Z,7.30
2018-12-23T19:50:57.728Z,7.35
2018-12-23T19:54:04.988Z,7.38
2018-12-23T19:57:12.215Z,7.40
2018-12-23T20:00:12.533Z,7.41
2018-12-23T20:03:07.863Z,7.42
2018-12-23T20:06:15.097Z,7.44
2018-12-23T20:09:22.337Z,7.39
2018-12-23T20:12:20.675Z,7.37
2018-12-23T20:15:27.950Z,7.40
2018-12-23T20:18:35.467Z,7.43
2018-12-23T20:21:42.765Z,7.32
2018-12-23T20:24:35.736Z,7.28
2018-12-23T21:14:41.977Z,7.23
2018-12-23T21:17:49.222Z,7.26
2018-12-23T21:20:56.437Z,7.27
2018-12-23T21:23:55.345Z,7.26
2018-12-23T21:27:02.588Z,7.24
2018-12-23T21:30:09.909Z,7.22
2018-12-23T21:33:14.665Z,7.27
2018-12-23T21:39:36.057Z,7.25
2018-12-23T21:42:43.345Z,7.23
2018-12-23T21:48:52.670Z,7.22
2018-12-23T21:51:59.900Z,7.17
2018-12-23T21:58:30.846Z,7.18
2018-12-23T22:04:26.594Z,7.16
2018-12-23T22:07:33.836Z,7.15
2018-12-23T22:10:41.103Z,7.12
2018-12-23T22:13:37.195Z,7.13
2018-12-23T22:16:06.144Z,7.09
2018-12-23T22:18:35.135Z,7.10
2018-12-23T22:21:03.960Z,7.09
2018-12-23T22:23:32.768Z,7.03
2018-12-23T22:26:03.748Z,7.00
2018-12-23T22:28:32.615Z,7.04
2018-12-23T22:31:01.561Z,7.03
2018-12-23T22:33:30.476Z,7.06
2018-12-23T22:36:18.641Z,7.09
2018-12-23T22:41:43.026Z,7.16
2018-12-23T22:44:31.138Z,7.16
2018-12-23T22:47:19.273Z,7.15
2018-12-23T22:52:55.351Z,7.10
2018-12-23T22:55:43.492Z,7.11
2018-12-23T23:01:07.831Z,7.04
2018-12-23T23:03:36.660Z,6.96
2018-12-23T23:06:05.629Z,6.97
2018-12-23T23:08:46.261Z,6.96
2018-12-23T23:11:05.189Z,6.97
2018-12-23T23:13:33.996Z,7.00
2018-12-23T23:16:02.895Z,7.01
2018-12-23T23:18:50.999Z,6.97
2018-12-23T23:24:14.083Z,6.92
2018-12-23T23:27:02.203Z,6.82
2018-12-23T23:29:50.324Z,6.90
2018-12-23T23:32:38.178Z,6.75
2018-12-23T23:35:07.205Z,6.62
2018-12-23T23:37:55.033Z,6.56
2018-12-23T23:40:43.164Z,6.62
2018-12-23T23:43:31.319Z,6.51
2018-12-23T23:46:19.443Z,6.44
2018-12-23T23:49:07.576Z,6.42
2018-12-23T23:51:55.708Z,6.42
2018-12-23T23:54:24.531Z,6.38
2018-12-23T23:56:53.317Z,6.36
2018-12-23T23:59:41.149Z,6.42
